createdAt,value
2018-03-18T00:02:22.913Z,12.60
2018-03-18T00:04:50.078Z,12.60
2018-03-18T00:07:17.246Z,12.60
2018-03-18T00:09:44.414Z,12.50
2018-03-18T00:12:11.587Z,12.50
2018-03-18T00:14:39.568Z,12.70
2018-03-18T00:17:07.494Z,12.70
2018-03-18T00:19:34.710Z,12.70
2018-03-18T00:22:01.869Z,12.60
2018-03-18T00:24:29.043Z,12.60
2018-03-18T00:26:57.020Z,12.70
2018-03-18T00:29:24.198Z,12.70
2018-03-18T00:31:52.135Z,12.80
2018-03-18T00:34:19.357Z,12.70
2018-03-18T00:36:46.523Z,12.80
2018-03-18T00:39:13.692Z,12.70
2018-03-18T00:41:40.863Z,12.60
2018-03-18T00:44:08.035Z,12.70
2018-03-18T00:46:35.974Z,12.70
2018-03-18T00:49:03.142Z,12.70
2018-03-18T00:51:37.068Z,12.70
2018-03-18T00:54:05.007Z,12.60
2018-03-18T00:56:32.207Z,12.60
2018-03-18T00:58:59.378Z,12.50
2018-03-18T01:01:26.551Z,12.40
2018-03-18T01:03:53.723Z,12.30
2018-03-18T01:06:20.897Z,12.40
2018-03-18T01:08:48.838Z,12.40
2018-03-18T01:11:16.023Z,12.40
2018-03-18T01:13:43.189Z,12.40
2018-03-18T01:16:10.357Z,12.40
2018-03-18T01:18:37.530Z,12.40
2018-03-18T01:21:06.243Z,12.50
2018-03-18T01:23:33.447Z,12.50
2018-03-18T01:26:00.619Z,12.60
2018-03-18T01:28:27.788Z,12.70
2018-03-18T01:30:55.006Z,12.70
2018-03-18T01:33:22.174Z,12.70
2018-03-18T01:35:49.388Z,12.70
2018-03-18T01:38:16.554Z,12.70
2018-03-18T01:40:43.718Z,12.60
2018-03-18T01:43:11.740Z,12.50
2018-03-18T01:45:38.895Z,12.50
2018-03-18T01:48:06.834Z,12.60
2018-03-18T01:50:34.004Z,12.60
2018-03-18T01:53:07.770Z,12.70
2018-03-18T01:55:34.938Z,12.60
2018-03-18T01:58:02.138Z,12.70
2018-03-18T02:00:29.308Z,12.70
2018-03-18T02:02:56.514Z,12.50
2018-03-18T02:05:24.447Z,12.60
2018-03-18T02:07:51.615Z,12.60
2018-03-18T02:10:19.706Z,12.50
2018-03-18T02:12:46.887Z,12.50
2018-03-18T02:15:14.966Z,12.60
2018-03-18T02:17:42.797Z,12.50
2018-03-18T02:20:10.754Z,12.50
2018-03-18T02:22:38.715Z,12.40
2018-03-18T02:25:06.801Z,12.50
2018-03-18T02:27:33.962Z,12.50
2018-03-18T02:30:01.895Z,12.50
2018-03-18T02:32:29.478Z,12.50
2018-03-18T02:34:57.522Z,12.50
2018-03-18T02:37:25.586Z,12.40
2018-03-18T02:39:53.682Z,12.40
2018-03-18T02:42:21.653Z,12.10
2018-03-18T02:44:49.756Z,12.10
2018-03-18T02:47:17.692Z,12.30
2018-03-18T02:49:45.694Z,12.20
2018-03-18T02:52:13.790Z,12.30
2018-03-18T02:54:41.739Z,12.20
2018-03-18T02:57:09.673Z,12.20
2018-03-18T02:59:36.836Z,12.20
2018-03-18T03:02:04.954Z,12.10
2018-03-18T03:04:33.035Z,12.10
2018-03-18T03:07:01.095Z,12.20
2018-03-18T03:09:29.167Z,12.20
2018-03-18T03:11:58.033Z,12.30
2018-03-18T03:14:26.101Z,12.30
2018-03-18T03:16:53.264Z,12.30
2018-03-18T03:19:21.207Z,12.20
2018-03-18T03:21:48.374Z,12.30
2018-03-18T03:24:16.317Z,12.20
2018-03-18T03:26:44.298Z,12.20
2018-03-18T03:29:11.466Z,12.10
2018-03-18T03:31:38.636Z,12.20
2018-03-18T03:34:07.514Z,12.30
2018-03-18T03:36:36.274Z,12.30
2018-03-18T03:39:04.336Z,12.30
2018-03-18T03:41:32.404Z,12.30
2018-03-18T03:43:59.569Z,12.30
2018-03-18T03:46:27.546Z,12.40
2018-03-18T03:48:55.651Z,12.40
2018-03-18T03:51:24.492Z,12.40
2018-03-18T03:53:52.587Z,12.40
2018-03-18T03:56:20.704Z,12.40
2018-03-18T03:58:49.577Z,12.40
2018-03-18T04:01:18.398Z,12.40
2018-03-18T04:03:46.518Z,12.40
2018-03-18T04:06:14.618Z,12.50
2018-03-18T04:08:43.449Z,12.50
2018-03-18T04:11:11.532Z,12.50
2018-03-18T04:13:39.633Z,12.50
2018-03-18T04:16:07.734Z,12.50
2018-03-18T04:18:35.666Z,12.40
2018-03-18T04:21:02.883Z,12.40
2018-03-18T04:23:30.053Z,12.50
2018-03-18T04:25:57.987Z,12.40
2018-03-18T04:28:26.859Z,12.30
2018-03-18T04:30:54.032Z,12.30
2018-03-18T04:33:21.683Z,12.20
2018-03-18T04:35:49.617Z,12.40
2018-03-18T04:38:17.734Z,12.40
2018-03-18T04:40:46.560Z,12.40
2018-03-18T04:43:14.667Z,12.40
2018-03-18T04:45:42.784Z,12.40
2018-03-18T04:48:10.007Z,12.30
2018-03-18T04:50:37.946Z,12.20
2018-03-18T04:53:05.109Z,12.20
2018-03-18T04:55:33.057Z,12.20
2018-03-18T04:58:01.118Z,12.20
2018-03-18T05:00:29.283Z,12.20
2018-03-18T05:02:56.449Z,12.10
2018-03-18T05:05:24.434Z,12.20
2018-03-18T05:07:52.543Z,12.10
2018-03-18T05:10:21.426Z,12.10
2018-03-18T05:12:49.514Z,12.10
2018-03-18T05:15:17.490Z,12.20
2018-03-18T05:17:46.430Z,12.30
2018-03-18T05:20:13.638Z,12.30
2018-03-18T05:22:41.566Z,12.30
2018-03-18T05:25:09.557Z,12.30
2018-03-18T05:27:37.699Z,12.20
2018-03-18T05:30:05.811Z,12.20
2018-03-18T05:32:33.827Z,12.20
2018-03-18T05:35:01.036Z,12.20
2018-03-18T05:37:29.012Z,12.20
2018-03-18T05:39:56.939Z,12.20
2018-03-18T05:42:24.102Z,12.20
2018-03-18T05:44:52.049Z,12.20
2018-03-18T05:47:19.259Z,12.20
2018-03-18T05:49:46.468Z,12.10
2018-03-18T05:52:13.638Z,12.10
2018-03-18T05:54:41.708Z,12.20
2018-03-18T05:57:09.816Z,12.20
2018-03-18T05:59:37.903Z,12.20
2018-03-18T06:02:05.074Z,12.10
2018-03-18T06:04:33.097Z,12.10
2018-03-18T06:07:01.032Z,12.00
2018-03-18T06:09:28.239Z,12.00
2018-03-18T06:11:55.450Z,12.10
2018-03-18T06:14:23.526Z,12.20
2018-03-18T06:16:50.694Z,12.20
2018-03-18T06:19:18.625Z,12.30
2018-03-18T06:21:45.836Z,12.30
2018-03-18T06:24:13.008Z,12.30
2018-03-18T06:26:40.178Z,12.30
2018-03-18T06:29:07.342Z,12.30
2018-03-18T06:31:34.544Z,12.30
2018-03-18T06:34:01.705Z,12.30
2018-03-18T06:36:28.922Z,12.20
2018-03-18T06:38:56.858Z,12.20
2018-03-18T06:41:24.025Z,12.10
2018-03-18T06:43:52.117Z,12.00
2018-03-18T06:46:19.317Z,12.00
2018-03-18T06:48:46.482Z,12.10
2018-03-18T06:51:13.649Z,12.10
2018-03-18T06:53:40.819Z,12.00
2018-03-18T06:56:07.981Z,12.10
2018-03-18T06:58:35.909Z,12.20
2018-03-18T07:01:03.079Z,12.20
2018-03-18T07:03:30.241Z,12.10
2018-03-18T07:05:59.149Z,12.10
2018-03-18T07:08:27.094Z,12.10
2018-03-18T07:10:54.297Z,12.10
2018-03-18T07:13:21.470Z,12.00
2018-03-18T07:15:48.633Z,12.10
2018-03-18T07:18:16.738Z,12.00
2018-03-18T07:20:44.665Z,12.00
2018-03-18T07:23:11.873Z,12.00
2018-03-18T07:25:40.713Z,12.10
2018-03-18T07:28:07.881Z,12.10
2018-03-18T07:30:35.082Z,12.10
2018-03-18T07:33:02.358Z,12.10
2018-03-18T07:35:29.525Z,12.10
2018-03-18T07:37:56.689Z,12.00
2018-03-18T07:40:23.852Z,12.00
2018-03-18T07:42:51.017Z,12.00
2018-03-18T07:45:18.945Z,12.00
2018-03-18T07:47:46.150Z,12.00
2018-03-18T07:50:13.317Z,12.10
2018-03-18T07:52:40.486Z,12.10
2018-03-18T07:55:07.653Z,12.10
2018-03-18T07:57:34.819Z,12.10
2018-03-18T08:00:01.987Z,12.00
2018-03-18T08:02:30.702Z,12.20
2018-03-18T08:04:57.868Z,12.20
2018-03-18T08:07:25.939Z,12.20
2018-03-18T08:09:53.124Z,12.40
2018-03-18T08:12:20.286Z,12.40
2018-03-18T08:14:48.229Z,12.40
2018-03-18T08:17:15.517Z,12.30
2018-03-18T08:19:42.686Z,12.30
2018-03-18T08:22:10.621Z,12.40
2018-03-18T08:24:39.106Z,12.40
2018-03-18T08:27:06.270Z,12.40
2018-03-18T08:29:34.209Z,12.40
2018-03-18T08:32:02.376Z,12.40
2018-03-18T08:34:29.538Z,12.30
2018-03-18T08:36:56.706Z,12.40
2018-03-18T08:39:31.261Z,12.40
2018-03-18T08:41:58.440Z,12.50
2018-03-18T08:44:25.614Z,12.60
2018-03-18T08:46:53.593Z,12.50
2018-03-18T08:49:21.655Z,12.40
2018-03-18T08:51:48.834Z,12.40
2018-03-18T08:54:15.999Z,12.40
2018-03-18T08:56:44.832Z,12.00
2018-03-18T08:59:12.895Z,12.00
2018-03-18T09:01:40.965Z,11.80
2018-03-18T09:04:09.058Z,11.80
2018-03-18T09:06:36.271Z,11.70
2018-03-18T09:09:03.425Z,11.70
2018-03-18T09:11:31.376Z,11.80
2018-03-18T09:13:59.318Z,11.80
2018-03-18T09:16:27.505Z,11.90
2018-03-18T09:18:55.610Z,11.90
2018-03-18T09:21:23.548Z,12.00
2018-03-18T09:23:50.710Z,12.00
2018-03-18T09:26:17.878Z,12.10
2018-03-18T09:28:46.584Z,12.20
2018-03-18T09:31:14.684Z,12.20
2018-03-18T09:33:42.789Z,12.30
2018-03-18T09:36:09.969Z,12.20
2018-03-18T09:38:37.898Z,12.00
2018-03-18T09:41:05.843Z,12.00
2018-03-18T09:43:33.016Z,12.10
2018-03-18T09:46:01.122Z,12.10
2018-03-18T09:48:29.055Z,12.10
2018-03-18T09:50:56.241Z,12.10
2018-03-18T09:53:24.177Z,12.00
2018-03-18T09:55:52.105Z,12.20
2018-03-18T09:58:19.273Z,12.20
2018-03-18T10:00:47.374Z,12.30
2018-03-18T10:03:14.578Z,12.30
2018-03-18T10:05:41.795Z,12.30
2018-03-18T10:08:08.981Z,12.20
2018-03-18T10:10:36.956Z,12.20
2018-03-18T10:13:04.130Z,12.20
2018-03-18T10:15:31.325Z,12.40
2018-03-18T10:17:58.490Z,12.40
2018-03-18T10:20:26.558Z,12.30
2018-03-18T10:22:54.517Z,12.30
2018-03-18T10:25:21.678Z,12.30
2018-03-18T10:27:48.851Z,12.20
2018-03-18T10:30:16.782Z,12.30
2018-03-18T10:32:43.944Z,12.30
2018-03-18T10:35:11.105Z,12.40
2018-03-18T10:37:39.037Z,12.00
2018-03-18T10:40:06.206Z,12.00
2018-03-18T10:42:33.365Z,12.00
2018-03-18T10:45:00.529Z,12.00
2018-03-18T10:47:28.465Z,11.90
2018-03-18T10:49:55.630Z,11.90
2018-03-18T10:52:22.814Z,12.00
2018-03-18T10:54:50.744Z,12.10
2018-03-18T10:57:17.909Z,12.00
2018-03-18T10:59:45.075Z,12.10
2018-03-18T11:02:17.649Z,12.10
2018-03-18T11:04:45.597Z,12.10
2018-03-18T11:07:12.757Z,12.10
2018-03-18T11:09:39.917Z,12.10
2018-03-18T11:12:07.083Z,12.10
2018-03-18T11:14:35.058Z,12.20
2018-03-18T11:17:02.987Z,12.20
2018-03-18T11:19:30.150Z,12.20
2018-03-18T11:21:57.328Z,12.10
2018-03-18T11:24:25.262Z,12.10
2018-03-18T11:26:53.358Z,12.10
2018-03-18T11:29:22.204Z,12.10
2018-03-18T11:31:50.261Z,12.10
2018-03-18T11:34:23.814Z,12.10
2018-03-18T11:36:51.904Z,12.20
2018-03-18T11:39:20.735Z,11.80
2018-03-18T11:41:48.803Z,11.70
2018-03-18T11:44:15.961Z,11.70
2018-03-18T11:46:44.810Z,11.80
2018-03-18T11:49:12.741Z,11.90
2018-03-18T11:51:39.910Z,11.90
2018-03-18T11:54:07.125Z,12.10
2018-03-18T11:56:34.294Z,12.30
2018-03-18T11:59:01.527Z,12.30
2018-03-18T12:01:28.698Z,12.40
2018-03-18T12:03:55.862Z,12.30
2018-03-18T12:06:23.031Z,12.40
2018-03-18T12:08:56.907Z,12.40
2018-03-18T12:11:24.075Z,12.40
2018-03-18T12:13:51.888Z,12.50
2018-03-18T12:16:19.049Z,12.40
2018-03-18T12:18:46.210Z,12.50
2018-03-18T12:21:13.374Z,12.40
2018-03-18T12:23:40.537Z,12.50
2018-03-18T12:26:07.703Z,12.40
2018-03-18T12:28:34.868Z,12.50
2018-03-18T12:31:03.617Z,12.50
2018-03-18T12:33:31.718Z,12.50
2018-03-18T12:35:59.786Z,12.60
2018-03-18T12:38:27.918Z,12.60
2018-03-18T12:40:55.085Z,12.60
2018-03-18T12:43:30.473Z,12.40
2018-03-18T12:45:58.409Z,12.40
2018-03-18T12:48:25.572Z,12.40
2018-03-18T12:50:52.737Z,12.40
2018-03-18T12:53:20.671Z,12.50
2018-03-18T12:55:47.833Z,12.50
2018-03-18T12:58:15.003Z,12.50
2018-03-18T13:00:42.168Z,12.50
2018-03-18T13:03:10.109Z,12.40
2018-03-18T13:05:37.273Z,12.30
2018-03-18T13:08:04.474Z,12.40
2018-03-18T13:10:31.645Z,12.40
2018-03-18T13:12:58.809Z,12.40
2018-03-18T13:15:26.122Z,12.50
2018-03-18T13:17:53.329Z,12.50
2018-03-18T13:20:20.582Z,12.40
2018-03-18T13:22:47.746Z,12.50
2018-03-18T13:25:14.917Z,12.40
2018-03-18T13:27:42.841Z,12.30
2018-03-18T13:30:10.005Z,12.20
2018-03-18T13:32:37.172Z,12.30
2018-03-18T13:35:05.107Z,12.20
2018-03-18T13:37:32.266Z,12.20
2018-03-18T13:39:59.434Z,12.20
2018-03-18T13:42:26.703Z,12.30
2018-03-18T13:44:53.890Z,12.40
2018-03-18T13:47:21.814Z,12.40
2018-03-18T13:49:49.081Z,12.50
2018-03-18T13:52:17.030Z,12.70
2018-03-18T13:54:44.196Z,12.70
2018-03-18T13:57:12.130Z,12.50
2018-03-18T13:59:39.344Z,12.50
2018-03-18T14:02:06.506Z,12.50
2018-03-18T14:04:33.678Z,12.50
2018-03-18T14:07:00.842Z,12.50
2018-03-18T14:09:28.002Z,12.60
2018-03-18T14:11:55.167Z,12.50
2018-03-18T14:14:23.139Z,12.60
2018-03-18T14:16:51.074Z,12.60
2018-03-18T14:19:18.346Z,12.60
2018-03-18T14:21:45.606Z,12.60
2018-03-18T14:24:12.806Z,12.60
2018-03-18T14:26:40.918Z,12.60
2018-03-18T14:29:08.082Z,12.50
2018-03-18T14:31:36.087Z,12.60
2018-03-18T14:34:03.262Z,12.60
2018-03-18T14:36:30.432Z,12.40
2018-03-18T14:38:57.682Z,12.40
2018-03-18T14:41:25.822Z,12.40
2018-03-18T14:43:53.035Z,12.50
2018-03-18T14:46:20.231Z,12.60
2018-03-18T14:48:47.393Z,12.60
2018-03-18T14:51:14.562Z,12.60
2018-03-18T14:53:41.749Z,12.50
2018-03-18T14:56:08.918Z,12.50
2018-03-18T14:58:36.845Z,12.40
2018-03-18T15:01:06.533Z,12.40
2018-03-18T15:03:33.706Z,12.50
2018-03-18T15:06:00.873Z,12.60
2018-03-18T15:08:28.034Z,12.50
2018-03-18T15:10:55.210Z,12.50
2018-03-18T15:13:22.373Z,12.40
2018-03-18T15:15:49.545Z,12.50
2018-03-18T15:18:16.754Z,12.50
2018-03-18T15:20:45.533Z,12.60
2018-03-18T15:23:12.857Z,12.60
2018-03-18T15:25:40.834Z,12.60
2018-03-18T15:28:07.998Z,12.50
2018-03-18T15:30:35.171Z,12.60
2018-03-18T15:33:03.102Z,12.50
2018-03-18T15:35:30.335Z,12.50
2018-03-18T15:37:58.321Z,12.50
2018-03-18T15:40:26.293Z,12.40
2018-03-18T15:42:53.459Z,12.50
2018-03-18T15:45:20.690Z,12.40
2018-03-18T15:47:47.865Z,12.50
2018-03-18T15:50:15.830Z,12.40
2018-03-18T15:52:43.909Z,12.40
2018-03-18T15:55:11.108Z,12.50
2018-03-18T15:57:38.279Z,12.60
2018-03-18T16:00:05.455Z,12.60
2018-03-18T16:02:32.622Z,12.70
2018-03-18T16:04:59.790Z,12.80
2018-03-18T16:07:27.717Z,12.70
2018-03-18T16:09:56.438Z,12.60
2018-03-18T16:12:24.365Z,12.70
2018-03-18T16:14:51.570Z,12.60
2018-03-18T16:17:20.397Z,12.70
2018-03-18T16:19:47.563Z,12.70
2018-03-18T16:22:14.733Z,12.70
2018-03-18T16:24:41.899Z,12.70
2018-03-18T16:27:09.866Z,12.70
2018-03-18T16:29:42.933Z,12.70
2018-03-18T16:32:10.094Z,12.60
2018-03-18T16:34:37.297Z,12.60
2018-03-18T16:37:04.501Z,12.60
2018-03-18T16:39:31.667Z,12.60
2018-03-18T16:41:59.637Z,12.60
2018-03-18T16:44:27.565Z,12.60
2018-03-18T16:46:55.494Z,12.60
2018-03-18T16:49:23.431Z,12.50
2018-03-18T16:51:50.598Z,12.50
2018-03-18T16:54:19.470Z,12.50
2018-03-18T16:56:47.559Z,12.50
2018-03-18T16:59:15.504Z,12.60
2018-03-18T17:01:43.630Z,12.60
2018-03-18T17:04:11.707Z,12.50
2018-03-18T17:06:38.905Z,12.60
2018-03-18T17:09:06.066Z,12.50
2018-03-18T17:11:33.230Z,12.60
2018-03-18T17:14:01.170Z,12.60
2018-03-18T17:16:29.106Z,12.60
2018-03-18T17:18:56.321Z,12.60
2018-03-18T17:21:24.253Z,12.70
2018-03-18T17:23:51.416Z,12.70
2018-03-18T17:26:18.643Z,12.70
2018-03-18T17:28:45.814Z,12.70
2018-03-18T17:31:12.978Z,12.70
2018-03-18T17:33:40.178Z,12.70
2018-03-18T17:36:08.378Z,12.70
2018-03-18T17:38:36.561Z,12.80
2018-03-18T17:41:03.757Z,12.80
2018-03-18T17:43:31.690Z,13.00
2018-03-18T17:46:04.919Z,13.00
2018-03-18T17:48:38.833Z,13.20
2018-03-18T17:51:12.789Z,13.20
2018-03-18T17:53:46.058Z,13.20
2018-03-18T17:56:19.193Z,13.10
2018-03-18T17:58:47.341Z,13.10
2018-03-18T18:01:14.523Z,13.10
2018-03-18T18:03:42.673Z,13.20
2018-03-18T18:06:09.877Z,13.20
2018-03-18T18:08:38.658Z,13.20
2018-03-18T18:11:06.678Z,13.20
2018-03-18T18:13:33.878Z,13.30
2018-03-18T18:16:01.085Z,13.30
2018-03-18T18:18:28.319Z,13.30
2018-03-18T18:20:55.536Z,13.20
2018-03-18T18:23:22.748Z,13.20
2018-03-18T18:25:49.918Z,13.20
2018-03-18T18:28:17.130Z,13.10
2018-03-18T18:30:44.301Z,13.20
2018-03-18T18:33:11.513Z,13.20
2018-03-18T18:35:39.490Z,13.10
2018-03-18T18:38:07.429Z,13.00
2018-03-18T18:40:34.602Z,13.00
2018-03-18T18:43:02.558Z,13.10
2018-03-18T18:45:29.794Z,13.10
2018-03-18T18:47:56.990Z,13.00
2018-03-18T18:50:24.162Z,13.00
2018-03-18T18:52:52.094Z,13.00
2018-03-18T18:55:20.049Z,13.20
2018-03-18T18:57:47.308Z,13.20
2018-03-18T19:00:14.560Z,13.40
2018-03-18T19:02:41.903Z,13.40
2018-03-18T19:05:09.154Z,13.50
2018-03-18T19:07:37.303Z,13.40
2018-03-18T19:10:06.203Z,13.40
2018-03-18T19:12:33.442Z,13.40
2018-03-18T19:15:00.660Z,13.40
2018-03-18T19:17:28.619Z,13.40
2018-03-18T19:19:56.580Z,13.40
2018-03-18T19:22:23.816Z,13.40
2018-03-18T19:24:51.058Z,13.40
2018-03-18T19:27:18.259Z,13.40
2018-03-18T19:29:45.472Z,13.30
2018-03-18T19:32:12.638Z,13.30
2018-03-18T19:34:40.739Z,13.40
2018-03-18T19:37:08.708Z,13.30
2018-03-18T19:39:36.695Z,13.30
2018-03-18T19:42:03.906Z,13.30
2018-03-18T19:44:31.154Z,13.40
2018-03-18T19:46:58.333Z,13.40
2018-03-18T19:49:26.262Z,13.30
2018-03-18T19:51:53.448Z,13.30
2018-03-18T19:54:21.404Z,13.30
2018-03-18T19:56:48.569Z,13.30
2018-03-18T19:59:16.518Z,13.30
2018-03-18T20:01:43.713Z,13.30
2018-03-18T20:04:10.922Z,13.30
2018-03-18T20:06:38.084Z,13.30
2018-03-18T20:09:06.019Z,13.30
2018-03-18T20:11:34.001Z,13.30
2018-03-18T20:14:01.166Z,13.30
2018-03-18T20:16:28.334Z,13.20
2018-03-18T20:18:57.243Z,13.20
2018-03-18T20:21:26.074Z,13.20
2018-03-18T20:23:53.662Z,13.20
2018-03-18T20:26:20.876Z,13.10
2018-03-18T20:28:48.034Z,13.10
2018-03-18T20:31:15.214Z,13.10
2018-03-18T20:33:42.385Z,13.10
2018-03-18T20:36:10.406Z,13.30
2018-03-18T20:38:37.603Z,13.30
2018-03-18T20:41:04.769Z,13.40
2018-03-18T20:43:32.787Z,13.50
2018-03-18T20:45:59.950Z,13.50
2018-03-18T20:48:27.114Z,13.50
2018-03-18T20:50:55.273Z,13.40
2018-03-18T20:53:23.253Z,13.40
2018-03-18T20:55:51.221Z,13.40
2018-03-18T20:58:19.302Z,13.40
2018-03-18T21:00:47.304Z,13.40
2018-03-18T21:03:16.241Z,13.30
2018-03-18T21:05:43.501Z,13.30
2018-03-18T21:08:10.678Z,13.30
2018-03-18T21:10:37.963Z,13.40
2018-03-18T21:13:05.458Z,13.40
2018-03-18T21:15:32.632Z,13.40
2018-03-18T21:17:59.801Z,13.40
2018-03-18T21:20:27.009Z,13.30
2018-03-18T21:22:54.179Z,13.30
2018-03-18T21:25:22.341Z,13.30
2018-03-18T21:27:49.666Z,13.30
2018-03-18T21:30:16.874Z,13.30
2018-03-18T21:32:44.315Z,13.20
2018-03-18T21:35:11.486Z,13.20
2018-03-18T21:37:38.924Z,13.20
2018-03-18T21:40:06.092Z,13.10
2018-03-18T21:42:33.293Z,13.10
2018-03-18T21:45:01.329Z,13.10
2018-03-18T21:47:28.976Z,13.20
2018-03-18T21:49:57.078Z,13.20
2018-03-18T21:52:26.222Z,13.10
2018-03-18T21:54:54.286Z,13.10
2018-03-18T21:57:21.498Z,13.20
2018-03-18T21:59:49.502Z,13.30
2018-03-18T22:02:16.698Z,13.30
2018-03-18T22:04:44.105Z,13.30
2018-03-18T22:07:11.310Z,13.30
2018-03-18T22:09:38.522Z,13.30
2018-03-18T22:12:05.718Z,13.30
2018-03-18T22:14:32.917Z,13.30
2018-03-18T22:17:00.083Z,13.20
2018-03-18T22:19:27.281Z,13.30
2018-03-18T22:21:54.501Z,13.40
2018-03-18T22:24:21.675Z,13.50
2018-03-18T22:26:48.844Z,13.60
2018-03-18T22:29:16.817Z,13.60
2018-03-18T22:31:44.776Z,13.60
2018-03-18T22:34:11.941Z,13.60
2018-03-18T22:36:39.915Z,13.50
2018-03-18T22:39:07.845Z,13.50
2018-03-18T22:41:35.008Z,13.50
2018-03-18T22:44:03.115Z,13.50
2018-03-18T22:46:30.277Z,13.40
2018-03-18T22:48:57.477Z,13.40
2018-03-18T22:51:24.646Z,13.40
2018-03-18T22:53:51.809Z,13.40
2018-03-18T22:56:19.737Z,13.40
2018-03-18T22:58:47.697Z,13.50
2018-03-18T23:01:14.870Z,13.40
2018-03-18T23:03:42.074Z,13.40
2018-03-18T23:06:09.240Z,13.40
2018-03-18T23:08:37.315Z,13.40
2018-03-18T23:11:04.510Z,13.30
2018-03-18T23:13:32.450Z,13.30
2018-03-18T23:15:59.653Z,13.30
2018-03-18T23:18:27.622Z,13.40
2018-03-18T23:20:55.558Z,13.40
2018-03-18T23:23:22.728Z,13.40
2018-03-18T23:25:49.895Z,13.40
2018-03-18T23:28:18.216Z,13.30
2018-03-18T23:30:45.393Z,13.30
2018-03-18T23:33:13.376Z,13.30
2018-03-18T23:35:41.442Z,13.30
2018-03-18T23:38:08.646Z,13.30
2018-03-18T23:40:35.815Z,13.30
2018-03-18T23:43:03.794Z,13.30
2018-03-18T23:45:31.751Z,13.30
2018-03-18T23:47:59.761Z,13.30
2018-03-18T23:50:27.817Z,13.20
2018-03-18T23:52:55.009Z,13.20
2018-03-18T23:55:22.983Z,13.20
2018-03-18T23:57:50.913Z,13.20
